Time;durP1;ratioP1;P1;durP2;ratioP2;P2;SDS_P1;SDS_P2;PMS_P1;PMS_P2;Temp;Humidity;BMP_temperature;BMP_pressure;BME280_temperature;BME280_humidity;BME280_pressure;Samples;Min_cycle;Max_cycle;Signal;HPM_P1;HPM_P2
2023/03/05 00:02:09;;;;;;;11.43;1.60;;;6.20;99.90;;;;;;5004809;28;20433;-70
2023/03/05 00:04:40;;;;;;;3.20;2.13;;;6.20;99.90;;;;;;5028677;28;20460;-70
2023/03/05 00:07:11;;;;;;;5.10;1.80;;;6.00;99.90;;;;;;5013324;28;20504;-70
2023/03/05 00:09:37;;;;;;;3.00;1.70;;;5.90;99.90;;;;;;5004004;28;20954;-71
2023/03/05 00:12:05;;;;;;;2.77;1.77;;;5.90;99.90;;;;;;5007930;28;20453;-71
2023/03/05 00:14:32;;;;;;;6.43;1.80;;;5.80;99.90;;;;;;5005914;28;20448;-71
2023/03/05 00:16:59;;;;;;;3.47;1.83;;;5.80;99.90;;;;;;5002495;28;20535;-70
2023/03/05 00:19:27;;;;;;;4.40;1.10;;;5.80;99.90;;;;;;5001661;28;20828;-70
2023/03/05 00:21:55;;;;;;;1.97;1.87;;;5.90;99.90;;;;;;5005251;28;20431;-71
2023/03/05 00:24:22;;;;;;;1.60;1.20;;;5.90;99.90;;;;;;5006999;28;21024;-71
2023/03/05 00:26:49;;;;;;;6.73;1.53;;;5.90;99.90;;;;;;5005978;28;20488;-70
2023/03/05 00:29:20;;;;;;;3.97;2.00;;;5.80;99.90;;;;;;4967711;28;20897;-71
2023/03/05 00:31:47;;;;;;;1.33;1.03;;;5.60;99.90;;;;;;5011697;28;20433;-70
2023/03/05 00:34:16;;;;;;;3.30;1.77;;;5.50;99.90;;;;;;5007900;28;20432;-70
2023/03/05 00:36:45;;;;;;;3.73;1.23;;;5.50;99.90;;;;;;5000496;28;20517;-70
2023/03/05 00:39:16;;;;;;;2.20;1.30;;;5.50;99.90;;;;;;4999816;28;20932;-71
2023/03/05 00:41:47;;;;;;;5.30;2.17;;;5.60;99.90;;;;;;5003382;28;20449;-71
2023/03/05 00:44:14;;;;;;;3.77;2.27;;;5.50;99.90;;;;;;5008331;28;20514;-70
2023/03/05 00:46:41;;;;;;;1.90;1.80;;;5.50;99.90;;;;;;5008685;28;20482;-71
2023/03/05 00:49:08;;;;;;;5.83;2.53;;;5.60;99.90;;;;;;5000227;28;20520;-70
2023/03/05 00:51:35;;;;;;;2.70;1.87;;;5.70;99.90;;;;;;5001782;28;20435;-70
2023/03/05 00:54:02;;;;;;;4.20;1.67;;;5.70;99.90;;;;;;5004804;28;20463;-70
2023/03/05 00:56:31;;;;;;;2.83;1.83;;;5.70;99.90;;;;;;5004758;28;20540;-71
2023/03/05 00:58:57;;;;;;;4.97;2.00;;;5.60;99.90;;;;;;5005597;28;20436;-71
2023/03/05 01:01:25;;;;;;;6.53;1.30;;;5.50;99.90;;;;;;5004390;28;20520;-71
2023/03/05 01:03:55;;;;;;;3.10;1.83;;;5.40;99.90;;;;;;5016723;28;20472;-71
2023/03/05 01:06:22;;;;;;;3.73;1.83;;;5.40;99.90;;;;;;5010477;28;20982;-71
2023/03/05 01:08:48;;;;;;;9.83;2.77;;;5.50;99.90;;;;;;5006495;28;20541;-71
2023/03/05 01:11:15;;;;;;;3.60;3.07;;;5.50;99.90;;;;;;5000260;28;21021;-71
2023/03/05 01:13:44;;;;;;;2.07;1.83;;;5.50;99.90;;;;;;4998465;28;20524;-71
2023/03/05 01:16:11;;;;;;;5.10;2.17;;;5.50;99.90;;;;;;5006254;28;20502;-71
2023/03/05 01:18:39;;;;;;;3.73;2.33;;;5.50;99.90;;;;;;5000176;28;20469;-71
2023/03/05 01:21:06;;;;;;;1.97;1.73;;;5.50;99.90;;;;;;5005858;28;20568;-70
2023/03/05 01:23:36;;;;;;;7.20;2.40;;;5.50;99.90;;;;;;5007818;28;20928;-70
2023/03/05 01:26:04;;;;;;;2.57;1.70;;;5.40;99.90;;;;;;5009734;28;20533;-71
2023/03/05 01:28:31;;;;;;;1.63;1.00;;;5.40;99.90;;;;;;5011437;28;20511;-71
2023/03/05 01:31:00;;;;;;;6.63;1.77;;;5.30;99.90;;;;;;5005728;28;20519;-71
2023/03/05 01:33:27;;;;;;;7.03;2.63;;;5.30;99.90;;;;;;5008997;28;20457;-71
2023/03/05 01:35:54;;;;;;;2.23;2.03;;;5.30;99.90;;;;;;5010456;28;20428;-71
2023/03/05 01:38:24;;;;;;;3.97;1.43;;;5.30;99.90;;;;;;5001081;28;20453;-71
2023/03/05 01:40:51;;;;;;;3.20;1.83;;;5.40;99.90;;;;;;5006568;28;20481;-71
2023/03/05 01:43:26;;;;;;;2.93;2.57;;;5.40;99.90;;;;;;5004455;28;20987;-71
2023/03/05 01:46:25;;;;;;;14.23;1.80;;;5.40;99.90;;;;;;5009137;28;20464;-71
2023/03/05 01:48:56;;;;;;;6.33;1.70;;;5.40;99.90;;;;;;5004084;28;20516;-71
2023/03/05 01:51:26;;;;;;;5.27;1.27;;;5.40;99.90;;;;;;5005446;28;20462;-71
2023/03/05 01:53:57;;;;;;;3.93;1.90;;;5.40;99.90;;;;;;5011241;28;20449;-71
2023/03/05 01:56:24;;;;;;;2.50;1.80;;;5.20;99.90;;;;;;5000760;28;20548;-71
2023/03/05 01:58:53;;;;;;;4.00;1.73;;;5.20;99.90;;;;;;5014363;28;20526;-71
2023/03/05 02:01:20;;;;;;;12.93;3.27;;;5.10;99.90;;;;;;5002794;28;20464;-71
2023/03/05 02:03:49;;;;;;;3.27;1.40;;;5.10;99.90;;;;;;5010151;28;20528;-71
2023/03/05 02:06:16;;;;;;;2.57;2.10;;;5.10;99.90;;;;;;5011504;28;20532;-71
2023/03/05 02:08:43;;;;;;;2.03;1.47;;;5.10;99.90;;;;;;5007550;28;20463;-71
2023/03/05 02:11:10;;;;;;;2.70;1.80;;;5.30;99.90;;;;;;5013235;28;20544;-70
2023/03/05 02:13:39;;;;;;;1.60;1.37;;;5.30;99.90;;;;;;5004694;28;20481;-70
2023/03/05 02:16:07;;;;;;;5.90;1.77;;;5.30;99.90;;;;;;5008953;28;20474;-70
2023/03/05 02:18:34;;;;;;;11.27;2.00;;;5.40;99.90;;;;;;5007046;28;20983;-70
2023/03/05 02:21:05;;;;;;;3.27;1.50;;;5.40;99.90;;;;;;5010277;28;20828;-69
2023/03/05 02:23:35;;;;;;;3.83;1.63;;;5.30;99.90;;;;;;5010323;28;20437;-69
2023/03/05 02:26:03;;;;;;;1.40;1.30;;;5.40;99.90;;;;;;5010356;28;20804;-72
2023/03/05 02:28:35;;;;;;;2.80;1.50;;;5.30;99.90;;;;;;5010729;28;20540;-71
2023/03/05 02:31:02;;;;;;;2.07;1.60;;;5.20;99.90;;;;;;5008907;28;20470;-70
2023/03/05 02:33:29;;;;;;;2.20;2.00;;;5.30;99.90;;;;;;5015884;28;20508;-70
2023/03/05 02:35:56;;;;;;;3.10;1.10;;;5.20;99.90;;;;;;5019920;28;20488;-70
2023/03/05 02:38:24;;;;;;;2.90;1.10;;;5.20;99.90;;;;;;5022395;28;20440;-70
2023/03/05 02:40:51;;;;;;;3.77;1.00;;;5.20;99.90;;;;;;5003894;28;20485;-72
2023/03/05 02:43:18;;;;;;;2.07;1.77;;;5.10;99.90;;;;;;4999190;28;20756;-70
2023/03/05 02:45:45;;;;;;;13.50;1.83;;;5.20;99.90;;;;;;5007215;28;20524;-70
2023/03/05 02:48:13;;;;;;;1.10;1.00;;;5.10;99.90;;;;;;5002250;28;20458;-70
2023/03/05 02:50:41;;;;;;;1.80;1.30;;;5.10;99.90;;;;;;5007924;28;21022;-70
2023/03/05 02:53:08;;;;;;;1.30;1.20;;;5.00;99.90;;;;;;5010056;28;20950;-70
2023/03/05 02:55:36;;;;;;;1.53;1.30;;;5.10;99.90;;;;;;5009368;28;20446;-71
2023/03/05 02:58:03;;;;;;;1.93;1.50;;;5.10;99.90;;;;;;5004701;28;20991;-70
2023/03/05 03:00:30;;;;;;;13.53;1.83;;;5.20;99.90;;;;;;5009785;28;20458;-70
2023/03/05 03:02:57;;;;;;;1.20;1.00;;;5.10;99.90;;;;;;5005941;28;20523;-70
2023/03/05 03:05:24;;;;;;;2.00;1.10;;;5.20;99.90;;;;;;5010943;28;20476;-71
2023/03/05 03:07:51;;;;;;;4.10;1.50;;;5.10;99.90;;;;;;5002062;28;20897;-70
2023/03/05 03:10:18;;;;;;;2.23;1.50;;;5.20;99.90;;;;;;5006536;28;20433;-71
2023/03/05 03:12:46;;;;;;;1.37;1.07;;;5.20;99.90;;;;;;5014369;28;20437;-71
2023/03/05 03:15:15;;;;;;;1.63;1.30;;;5.20;99.90;;;;;;4953944;28;20428;-70
2023/03/05 03:17:43;;;;;;;1.10;0.90;;;5.20;99.90;;;;;;5005224;28;20829;-70
2023/03/05 03:20:14;;;;;;;2.30;1.30;;;5.20;99.90;;;;;;5005449;28;20666;-70
2023/03/05 03:22:41;;;;;;;2.47;1.10;;;5.20;99.90;;;;;;5006714;28;20526;-70
2023/03/05 03:25:10;;;;;;;3.20;1.63;;;5.20;99.90;;;;;;5004443;28;20440;-70
2023/03/05 03:27:37;;;;;;;6.00;2.00;;;5.10;99.90;;;;;;4999897;28;20857;-70
2023/03/05 03:30:06;;;;;;;1.83;1.10;;;5.20;99.90;;;;;;5000491;28;20639;-70
2023/03/05 03:32:34;;;;;;;1.70;1.20;;;5.10;99.90;;;;;;5001995;28;20436;-70
2023/03/05 03:35:01;;;;;;;14.17;1.40;;;4.90;99.90;;;;;;5009039;28;20465;-70
2023/03/05 03:37:28;;;;;;;2.03;1.43;;;4.90;99.90;;;;;;4996392;28;20460;-70
2023/03/05 03:39:55;;;;;;;2.30;1.67;;;5.00;99.90;;;;;;5003473;28;20460;-70
2023/03/05 03:42:23;;;;;;;3.80;1.83;;;4.90;99.90;;;;;;5005407;28;20516;-70
2023/03/05 03:44:50;;;;;;;2.80;1.97;;;4.90;99.90;;;;;;5007215;28;20559;-70
2023/03/05 03:47:19;;;;;;;4.40;2.07;;;5.00;99.90;;;;;;4969207;28;20532;-70
2023/03/05 03:49:45;;;;;;;4.03;1.77;;;5.00;99.90;;;;;;5007356;28;20438;-70
2023/03/05 03:52:12;;;;;;;2.23;1.43;;;4.90;99.90;;;;;;5006542;28;20437;-70
2023/03/05 03:54:39;;;;;;;3.37;2.00;;;5.00;99.90;;;;;;5007161;28;20920;-70
2023/03/05 03:57:06;;;;;;;1.27;1.17;;;5.10;99.90;;;;;;5005353;28;20903;-70
2023/03/05 03:59:33;;;;;;;8.33;1.80;;;5.10;99.90;;;;;;5005785;28;20445;-71
2023/03/05 04:02:00;;;;;;;2.37;1.73;;;5.10;99.90;;;;;;5006697;28;20491;-70
2023/03/05 04:04:30;;;;;;;3.47;2.13;;;4.90;99.90;;;;;;5002168;28;20447;-71
2023/03/05 04:06:57;;;;;;;4.90;2.03;;;4.90;99.90;;;;;;5004145;28;20452;-71
2023/03/05 04:09:24;;;;;;;1.20;1.10;;;4.90;99.90;;;;;;4996633;28;20855;-71
2023/03/05 04:11:54;;;;;;;2.97;1.40;;;5.10;99.90;;;;;;5001225;28;20454;-71
2023/03/05 04:14:21;;;;;;;7.33;2.33;;;5.00;99.90;;;;;;5016142;28;20500;-71
2023/03/05 04:16:47;;;;;;;2.07;1.50;;;4.90;99.90;;;;;;5002674;28;20894;-71
2023/03/05 04:19:14;;;;;;;1.47;1.37;;;5.00;99.90;;;;;;5004539;28;20437;-71
2023/03/05 04:21:42;;;;;;;3.80;2.23;;;4.90;99.90;;;;;;5002520;28;20896;-71
2023/03/05 04:24:09;;;;;;;3.33;1.50;;;4.80;99.90;;;;;;5004505;28;20484;-71
2023/03/05 04:26:36;;;;;;;4.60;1.83;;;4.80;99.90;;;;;;4999286;28;20456;-71
2023/03/05 04:29:03;;;;;;;2.17;1.90;;;4.80;99.90;;;;;;5006026;28;20465;-71
2023/03/05 04:31:30;;;;;;;1.63;1.20;;;4.80;99.90;;;;;;5000010;28;20460;-71
2023/03/05 04:33:57;;;;;;;2.10;1.20;;;4.80;99.90;;;;;;5007484;28;20490;-69
2023/03/05 04:36:24;;;;;;;3.53;2.50;;;4.90;99.90;;;;;;5009952;28;20456;-69
2023/03/05 04:38:52;;;;;;;3.63;3.30;;;4.90;99.90;;;;;;5005356;28;20954;-69
2023/03/05 04:41:19;;;;;;;3.83;3.17;;;5.00;99.90;;;;;;5008910;28;20456;-69
2023/03/05 04:43:46;;;;;;;8.83;2.57;;;5.10;99.90;;;;;;5004616;28;20496;-70
2023/03/05 04:46:13;;;;;;;8.73;2.40;;;5.10;99.90;;;;;;4997423;28;20477;-70
2023/03/05 04:48:40;;;;;;;2.53;2.33;;;5.10;99.90;;;;;;5004337;28;20814;-71
2023/03/05 04:51:07;;;;;;;3.10;2.27;;;5.00;99.90;;;;;;5007472;28;20925;-69
2023/03/05 04:53:34;;;;;;;6.10;3.07;;;5.00;99.90;;;;;;5002867;28;20440;-70
2023/03/05 04:56:02;;;;;;;3.87;2.67;;;5.00;99.90;;;;;;5000549;28;20439;-69
2023/03/05 04:58:29;;;;;;;3.10;2.40;;;5.10;99.90;;;;;;5001819;28;20442;-69
2023/03/05 05:01:01;;;;;;;4.87;3.30;;;5.10;99.90;;;;;;4999826;28;20444;-70
2023/03/05 05:03:28;;;;;;;3.50;2.30;;;5.10;99.90;;;;;;5004629;28;20433;-72
2023/03/05 05:05:56;;;;;;;7.47;3.13;;;5.00;99.90;;;;;;5002570;28;20462;-72
2023/03/05 05:08:23;;;;;;;2.80;2.03;;;5.10;99.90;;;;;;5000874;28;20458;-70
2023/03/05 05:10:57;;;;;;;6.53;3.07;;;5.10;99.90;;;;;;5004926;28;20432;-69
2023/03/05 05:13:25;;;;;;;7.57;2.37;;;5.10;99.90;;;;;;5008192;28;20891;-70
2023/03/05 05:15:52;;;;;;;8.33;2.37;;;5.00;99.90;;;;;;5009179;28;20428;-69
2023/03/05 05:18:20;;;;;;;7.10;3.10;;;5.10;99.90;;;;;;5009236;28;20517;-70
2023/03/05 05:20:47;;;;;;;2.13;1.80;;;5.20;99.90;;;;;;5018965;28;20567;-70
2023/03/05 05:23:14;;;;;;;2.90;2.63;;;5.20;99.90;;;;;;5010314;28;20920;-70
2023/03/05 05:25:42;;;;;;;3.43;1.80;;;5.10;99.90;;;;;;5011418;28;20424;-69
2023/03/05 05:28:09;;;;;;;3.27;2.03;;;5.10;99.90;;;;;;5004529;28;20456;-70
2023/03/05 05:30:38;;;;;;;3.43;3.13;;;5.10;99.90;;;;;;5006296;28;20441;-70
2023/03/05 05:33:04;;;;;;;4.03;2.73;;;5.10;99.90;;;;;;5005991;28;20522;-70
2023/03/05 05:35:31;;;;;;;3.57;2.77;;;5.00;99.90;;;;;;5006338;28;20437;-70
2023/03/05 05:37:58;;;;;;;3.07;2.30;;;4.90;99.90;;;;;;5009616;28;20494;-70
2023/03/05 05:40:25;;;;;;;2.57;2.00;;;5.00;99.90;;;;;;5008125;28;20457;-70
2023/03/05 05:42:52;;;;;;;9.17;5.07;;;5.00;99.90;;;;;;5001955;28;20474;-69
2023/03/05 05:45:19;;;;;;;3.07;1.93;;;4.90;99.90;;;;;;5006468;28;20427;-70
2023/03/05 05:47:47;;;;;;;4.10;1.93;;;4.80;99.90;;;;;;5007927;28;21016;-69
2023/03/05 05:50:15;;;;;;;3.00;1.37;;;4.80;99.90;;;;;;5005448;28;20515;-69
2023/03/05 05:52:42;;;;;;;1.67;1.57;;;4.80;99.90;;;;;;5005098;28;20512;-70
2023/03/05 05:55:10;;;;;;;3.03;1.70;;;4.70;99.90;;;;;;5006061;28;20519;-70
2023/03/05 05:57:37;;;;;;;1.50;1.40;;;4.70;99.90;;;;;;5010973;28;20481;-70
2023/03/05 06:00:07;;;;;;;6.27;2.77;;;4.70;99.90;;;;;;5013354;28;20432;-70
2023/03/05 06:02:33;;;;;;;4.00;2.47;;;4.70;99.90;;;;;;5007469;28;20567;-70
2023/03/05 06:05:02;;;;;;;3.23;2.93;;;4.80;99.90;;;;;;5011565;28;20436;-70
2023/03/05 06:07:30;;;;;;;3.70;1.93;;;4.70;99.90;;;;;;5005265;28;20457;-71
2023/03/05 06:09:57;;;;;;;2.00;1.70;;;4.80;99.90;;;;;;5006758;28;20440;-70
2023/03/05 06:12:24;;;;;;;4.10;2.77;;;4.70;99.90;;;;;;5005923;28;20438;-70
2023/03/05 06:14:51;;;;;;;2.07;1.83;;;4.60;99.90;;;;;;5005276;28;20428;-70
2023/03/05 06:17:17;;;;;;;4.60;1.83;;;4.70;99.90;;;;;;5012744;28;20459;-71
2023/03/05 06:19:44;;;;;;;2.07;1.90;;;4.70;99.90;;;;;;5007395;28;20900;-70
2023/03/05 06:22:13;;;;;;;1.87;1.57;;;4.70;99.90;;;;;;5015222;28;20527;-71
2023/03/05 06:24:40;;;;;;;3.23;2.90;;;4.80;99.90;;;;;;5016134;28;20444;-71
2023/03/05 06:27:07;;;;;;;2.70;1.80;;;4.80;99.90;;;;;;5011328;28;20520;-70
2023/03/05 06:29:34;;;;;;;1.80;1.20;;;4.80;99.90;;;;;;5005545;28;20497;-71
2023/03/05 06:32:00;;;;;;;1.43;1.30;;;4.70;99.90;;;;;;5007598;28;20530;-70
2023/03/05 06:34:27;;;;;;;1.93;1.50;;;4.70;99.90;;;;;;5008084;28;20433;-70
2023/03/05 06:36:54;;;;;;;1.77;1.53;;;4.70;99.90;;;;;;5012330;28;20628;-70
2023/03/05 06:39:22;;;;;;;2.37;1.77;;;4.50;99.90;;;;;;5007553;28;20973;-71
2023/03/05 06:41:51;;;;;;;2.23;1.60;;;4.60;99.90;;;;;;5005232;28;20573;-71
2023/03/05 06:44:18;;;;;;;3.60;2.47;;;4.70;99.90;;;;;;5005718;28;20826;-71
2023/03/05 06:46:45;;;;;;;2.07;1.87;;;4.80;99.90;;;;;;5003852;28;20523;-71
2023/03/05 06:49:12;;;;;;;3.30;2.00;;;4.70;99.90;;;;;;5008280;28;20462;-71
2023/03/05 06:51:41;;;;;;;5.80;3.10;;;4.70;99.90;;;;;;5005846;28;20894;-71
2023/03/05 06:54:10;;;;;;;4.40;2.20;;;4.80;99.90;;;;;;5012065;28;20492;-71
2023/03/05 06:56:41;;;;;;;17.53;3.97;;;4.90;99.90;;;;;;5015188;28;20453;-71
2023/03/05 06:59:08;;;;;;;6.83;4.33;;;4.90;99.90;;;;;;5008500;28;20504;-71
2023/03/05 07:01:36;;;;;;;4.27;3.00;;;5.00;99.90;;;;;;5011610;28;20436;-70
2023/03/05 07:04:03;;;;;;;2.27;2.00;;;4.90;99.90;;;;;;5002077;28;20464;-70
2023/03/05 07:06:32;;;;;;;4.23;2.33;;;4.90;99.90;;;;;;5007830;28;20485;-70
2023/03/05 07:09:01;;;;;;;10.67;4.00;;;5.00;99.90;;;;;;5000701;28;20424;-70
2023/03/05 07:11:29;;;;;;;2.60;1.93;;;5.20;99.90;;;;;;5008713;28;20428;-70
2023/03/05 07:13:58;;;;;;;10.77;2.83;;;5.10;99.90;;;;;;5006575;28;20466;-70
2023/03/05 07:16:27;;;;;;;4.27;2.90;;;5.00;99.90;;;;;;5008011;28;20509;-70
2023/03/05 07:18:54;;;;;;;5.60;2.90;;;5.10;99.90;;;;;;5008269;28;20548;-70
2023/03/05 07:21:24;;;;;;;8.90;3.23;;;5.00;99.90;;;;;;5010344;28;21299;-70
2023/03/05 07:23:53;;;;;;;4.93;2.47;;;5.00;99.90;;;;;;5011836;28;20428;-71
2023/03/05 07:26:21;;;;;;;9.03;4.33;;;5.00;99.90;;;;;;5019595;28;20466;-71
2023/03/05 07:28:48;;;;;;;3.50;3.17;;;5.00;99.90;;;;;;5008064;28;20798;-71
2023/03/05 07:31:18;;;;;;;8.13;3.87;;;5.20;99.90;;;;;;5010698;28;21052;-71
2023/03/05 07:33:45;;;;;;;6.80;2.73;;;5.20;99.90;;;;;;5006168;28;20446;-71
2023/03/05 07:36:13;;;;;;;4.47;2.93;;;5.40;99.90;;;;;;5002582;28;20555;-71
2023/03/05 07:38:40;;;;;;;3.23;2.47;;;5.50;99.90;;;;;;5002852;28;20474;-71
2023/03/05 07:41:10;;;;;;;8.07;4.43;;;5.60;99.90;;;;;;5010922;28;20436;-70
2023/03/05 07:43:38;;;;;;;4.83;2.40;;;5.70;99.90;;;;;;5009065;28;21019;-71
2023/03/05 07:46:06;;;;;;;3.47;2.40;;;5.70;99.90;;;;;;5008861;28;20570;-71
2023/03/05 07:48:35;;;;;;;4.57;3.50;;;5.80;99.90;;;;;;5009770;28;20436;-71
2023/03/05 07:51:02;;;;;;;3.20;2.47;;;5.80;99.90;;;;;;5005324;28;20549;-71
2023/03/05 07:53:29;;;;;;;2.90;2.07;;;5.70;99.90;;;;;;5005258;28;20429;-71
2023/03/05 07:55:56;;;;;;;3.00;2.50;;;5.70;99.90;;;;;;5005109;28;20540;-70
2023/03/05 07:58:23;;;;;;;6.70;4.20;;;5.70;99.90;;;;;;5006385;28;20548;-71
2023/03/05 08:00:51;;;;;;;3.17;2.60;;;5.70;99.90;;;;;;5013288;28;20776;-71
2023/03/05 08:03:18;;;;;;;3.37;2.70;;;5.50;99.90;;;;;;5005787;28;20929;-71
2023/03/05 08:05:47;;;;;;;10.17;2.77;;;5.40;99.90;;;;;;5002203;28;20509;-71
2023/03/05 08:08:13;;;;;;;3.53;2.47;;;5.60;99.90;;;;;;5004478;28;20498;-71
2023/03/05 08:10:40;;;;;;;4.20;1.90;;;5.60;99.90;;;;;;5012506;28;20420;-71
2023/03/05 08:13:08;;;;;;;2.30;2.10;;;5.40;99.90;;;;;;5006231;28;20895;-71
2023/03/05 08:15:36;;;;;;;2.93;2.23;;;5.30;99.90;;;;;;5010463;28;20475;-71
2023/03/05 08:18:04;;;;;;;3.13;2.53;;;5.40;99.90;;;;;;5001369;28;20479;-71
2023/03/05 08:20:31;;;;;;;3.60;2.70;;;5.50;99.90;;;;;;5003736;28;20497;-71
2023/03/05 08:22:59;;;;;;;3.93;3.53;;;5.50;99.90;;;;;;5012767;28;20484;-71
2023/03/05 08:25:26;;;;;;;2.27;2.10;;;5.60;99.90;;;;;;5002123;28;20524;-71
2023/03/05 08:27:53;;;;;;;3.60;2.60;;;5.50;99.90;;;;;;5008024;28;20951;-71
2023/03/05 08:30:25;;;;;;;4.67;2.90;;;5.60;99.90;;;;;;5005159;28;20477;-70
2023/03/05 08:32:52;;;;;;;1.93;1.20;;;5.60;99.90;;;;;;5013319;28;20429;-71
2023/03/05 08:35:20;;;;;;;5.30;3.33;;;5.60;99.90;;;;;;5009642;28;21069;-70
2023/03/05 08:37:47;;;;;;;5.80;3.20;;;5.60;99.90;;;;;;5005283;28;20491;-71
2023/03/05 08:40:16;;;;;;;2.70;2.30;;;5.70;99.90;;;;;;5006580;28;20437;-71
2023/03/05 08:42:43;;;;;;;14.53;3.03;;;5.70;99.90;;;;;;4999949;28;20567;-72
2023/03/05 08:45:11;;;;;;;2.40;2.20;;;5.90;99.90;;;;;;5005578;28;20514;-70
2023/03/05 08:47:38;;;;;;;4.30;2.43;;;6.10;99.90;;;;;;5004383;28;20484;-71
2023/03/05 08:50:06;;;;;;;5.40;2.03;;;5.90;99.90;;;;;;5003841;28;20416;-71
2023/03/05 08:52:33;;;;;;;4.80;2.70;;;5.90;99.90;;;;;;5007095;28;20500;-71
2023/03/05 08:55:00;;;;;;;3.13;2.13;;;6.00;99.90;;;;;;4998704;28;20440;-70
2023/03/05 08:57:28;;;;;;;4.53;2.80;;;6.20;99.90;;;;;;5002569;28;21055;-71
2023/03/05 08:59:55;;;;;;;4.47;2.80;;;6.30;99.90;;;;;;5011659;28;20475;-71
2023/03/05 09:02:23;;;;;;;2.53;2.20;;;6.20;99.90;;;;;;4998712;28;20474;-71
2023/03/05 09:04:49;;;;;;;1.50;1.40;;;6.30;99.90;;;;;;5001731;28;20501;-70
2023/03/05 09:07:18;;;;;;;2.60;2.40;;;6.40;99.90;;;;;;5018113;28;20535;-71
2023/03/05 09:09:45;;;;;;;7.23;2.47;;;6.40;99.90;;;;;;5008074;28;20941;-71
2023/03/05 09:12:14;;;;;;;4.37;2.80;;;6.60;99.90;;;;;;5000573;28;20570;-71
2023/03/05 09:14:43;;;;;;;11.60;3.50;;;6.50;99.90;;;;;;5000824;28;20475;-71
2023/03/05 09:17:10;;;;;;;7.27;3.23;;;6.40;99.90;;;;;;5005367;28;20573;-70
2023/03/05 09:19:37;;;;;;;2.90;1.40;;;6.30;99.90;;;;;;4999526;28;20529;-70
2023/03/05 09:22:04;;;;;;;1.57;1.37;;;6.20;99.90;;;;;;5001963;28;20447;-71
2023/03/05 09:24:32;;;;;;;1.70;1.60;;;5.90;99.90;;;;;;5006979;28;20516;-72
2023/03/05 09:27:00;;;;;;;1.40;1.23;;;5.70;99.90;;;;;;5002400;28;20457;-71
2023/03/05 09:29:30;;;;;;;4.17;2.10;;;5.30;99.90;;;;;;4997354;28;20527;-71
2023/03/05 09:31:58;;;;;;;2.17;1.63;;;5.10;99.90;;;;;;5002350;28;20952;-71
2023/03/05 09:34:25;;;;;;;1.80;1.63;;;5.00;99.90;;;;;;5001459;28;20497;-71
2023/03/05 09:36:52;;;;;;;2.20;1.30;;;5.00;99.90;;;;;;5001875;28;20494;-71
2023/03/05 09:39:19;;;;;;;1.20;1.10;;;4.60;99.90;;;;;;5002051;28;20533;-71
2023/03/05 09:42:17;;;;;;;2.80;1.83;;;4.40;99.90;;;;;;5001142;28;20873;-71
2023/03/05 09:44:51;;;;;;;4.33;1.70;;;4.50;99.90;;;;;;4994465;28;20475;-72
2023/03/05 09:47:40;;;;;;;2.57;2.20;;;4.60;99.90;;;;;;5003794;28;20485;-72
2023/03/05 09:50:20;;;;;;;4.87;2.77;;;4.70;99.90;;;;;;5001279;28;20560;-70
2023/03/05 09:52:56;;;;;;;2.17;1.50;;;4.80;99.90;;;;;;5006583;28;20623;-71
2023/03/05 09:55:29;;;;;;;2.10;1.47;;;4.90;99.90;;;;;;5004164;28;20428;-71
2023/03/05 09:58:03;;;;;;;4.03;2.53;;;5.10;99.90;;;;;;5004977;28;20548;-72
2023/03/05 10:00:36;;;;;;;3.83;1.93;;;5.30;99.90;;;;;;5007289;28;20428;-72
2023/03/05 10:03:12;;;;;;;13.47;2.10;;;5.40;99.90;;;;;;5003185;28;20540;-70
2023/03/05 10:06:01;;;;;;;6.90;1.80;;;5.70;99.90;;;;;;5000044;28;20863;-71
2023/03/05 10:08:37;;;;;;;3.20;2.40;;;5.90;99.90;;;;;;5003376;28;20459;-69
2023/03/05 10:11:18;;;;;;;2.50;2.00;;;6.00;99.90;;;;;;5006466;28;20456;-70
2023/03/05 10:13:46;;;;;;;6.43;2.33;;;6.10;99.90;;;;;;5013756;28;20449;-72
2023/03/05 10:16:40;;;;;;;2.53;2.10;;;6.20;99.90;;;;;;5004149;28;21053;-70
2023/03/05 10:19:16;;;;;;;2.43;2.00;;;6.00;99.90;;;;;;5004809;28;20854;-70
2023/03/05 10:21:51;;;;;;;5.53;2.73;;;6.00;99.90;;;;;;5007463;28;20523;-70
2023/03/05 10:24:26;;;;;;;2.90;2.10;;;5.90;99.90;;;;;;5004981;28;20548;-71
2023/03/05 10:27:00;;;;;;;5.03;2.40;;;5.90;99.90;;;;;;5005157;28;20560;-70
2023/03/05 10:29:55;;;;;;;2.60;2.17;;;5.60;99.90;;;;;;5009697;28;20848;-71
2023/03/05 10:32:36;;;;;;;3.40;1.80;;;5.50;99.90;;;;;;5007508;28;20971;-70
2023/03/05 10:35:39;;;;;;;5.07;3.50;;;5.30;99.90;;;;;;5014295;28;20423;-70
2023/03/05 10:38:34;;;;;;;2.73;1.67;;;5.40;99.90;;;;;;5011516;28;20489;-69
2023/03/05 10:41:07;;;;;;;3.47;2.00;;;5.40;99.90;;;;;;5014923;28;20477;-70
2023/03/05 10:43:42;;;;;;;2.70;2.10;;;5.60;99.90;;;;;;5005223;28;20459;-70
2023/03/05 10:46:16;;;;;;;6.87;3.10;;;6.00;99.90;;;;;;5001358;28;20595;-70
2023/03/05 10:48:49;;;;;;;2.70;1.80;;;7.00;99.90;;;;;;5003385;28;20578;-69
2023/03/05 10:51:20;;;;;;;3.10;2.10;;;7.50;99.90;;;;;;5005820;28;20535;-71
2023/03/05 10:53:56;;;;;;;3.40;2.70;;;7.30;99.90;;;;;;5004882;28;20563;-70
2023/03/05 10:56:25;;;;;;;2.07;1.87;;;7.30;99.90;;;;;;5008266;28;20559;-71
2023/03/05 10:58:53;;;;;;;2.80;2.53;;;7.50;99.90;;;;;;5007288;28;21029;-71
2023/03/05 11:01:29;;;;;;;2.80;2.30;;;7.70;99.90;;;;;;5005238;28;20511;-71
2023/03/05 11:04:30;;;;;;;2.60;2.40;;;8.00;99.90;;;;;;5000152;28;20465;-69
2023/03/05 11:07:00;;;;;;;2.60;2.40;;;8.10;99.90;;;;;;5003933;28;20483;-71
2023/03/05 11:09:31;;;;;;;4.53;1.20;;;8.20;99.90;;;;;;5003996;28;20567;-71
2023/03/05 11:12:11;;;;;;;2.00;1.80;;;8.00;99.90;;;;;;5005870;28;20491;-71
2023/03/05 11:14:41;;;;;;;2.60;1.77;;;7.90;99.90;;;;;;5001527;28;20894;-70
2023/03/05 11:17:27;;;;;;;3.20;1.83;;;8.10;99.90;;;;;;5005434;28;20495;-70
2023/03/05 11:19:55;;;;;;;8.37;2.57;;;8.00;99.90;;;;;;5011535;28;20470;-69
2023/03/05 11:22:24;;;;;;;3.57;2.53;;;7.80;99.90;;;;;;5017697;28;20484;-70
2023/03/05 11:25:14;;;;;;;3.70;2.30;;;7.80;99.90;;;;;;5005495;28;20555;-72
2023/03/05 11:27:48;;;;;;;1.93;1.77;;;7.30;99.90;;;;;;5007965;28;20584;-71
2023/03/05 11:30:25;;;;;;;1.87;1.73;;;7.00;99.90;;;;;;5006170;28;20462;-69
2023/03/05 11:33:08;;;;;;;4.03;2.53;;;7.20;99.90;;;;;;5003458;28;20476;-69
2023/03/05 11:35:37;;;;;;;1.73;1.57;;;7.90;99.90;;;;;;4997975;28;20481;-70
2023/03/05 11:38:06;;;;;;;2.80;1.87;;;8.60;99.90;;;;;;5002741;28;20513;-70
2023/03/05 11:40:35;;;;;;;1.50;1.40;;;9.60;99.90;;;;;;5004426;28;20492;-70
2023/03/05 11:43:04;;;;;;;2.47;2.00;;;10.10;99.90;;;;;;5004088;28;20500;-69
2023/03/05 11:45:32;;;;;;;1.60;1.50;;;9.30;99.90;;;;;;5003269;28;21079;-70
2023/03/05 11:48:06;;;;;;;2.77;1.73;;;9.00;99.90;;;;;;5009068;28;20578;-70
2023/03/05 11:50:34;;;;;;;2.60;1.87;;;9.80;99.90;;;;;;5003723;28;20564;-70
2023/03/05 11:53:06;;;;;;;1.83;1.30;;;9.70;99.90;;;;;;5001348;28;20484;-70
2023/03/05 11:55:37;;;;;;;1.77;1.30;;;9.20;99.90;;;;;;5008893;28;20470;-70
2023/03/05 11:58:22;;;;;;;2.93;2.63;;;8.90;99.90;;;;;;5011153;28;20532;-70
2023/03/05 12:00:49;;;;;;;2.67;2.20;;;8.80;99.90;;;;;;5001440;28;20891;-71
2023/03/05 12:03:20;;;;;;;2.47;2.10;;;8.50;99.90;;;;;;5005665;28;20499;-70
2023/03/05 12:05:50;;;;;;;2.30;2.03;;;8.10;99.90;;;;;;4998542;28;20506;-70
2023/03/05 12:08:25;;;;;;;1.47;1.33;;;7.90;99.90;;;;;;5002287;28;20485;-71
2023/03/05 12:10:54;;;;;;;2.10;1.83;;;7.70;99.90;;;;;;4999621;28;20508;-71
2023/03/05 12:13:28;;;;;;;2.50;1.90;;;7.70;99.90;;;;;;5000402;28;20535;-70
2023/03/05 12:16:19;;;;;;;1.60;1.40;;;7.50;99.90;;;;;;5005937;28;20556;-70
2023/03/05 12:18:58;;;;;;;5.00;1.63;;;7.30;99.90;;;;;;5003885;28;20508;-71
2023/03/05 12:21:32;;;;;;;2.73;2.53;;;7.20;99.90;;;;;;4997970;28;20490;-70
2023/03/05 12:24:01;;;;;;;2.20;1.77;;;7.40;99.90;;;;;;5008147;28;20498;-70
2023/03/05 12:27:06;;;;;;;4.83;2.57;;;7.30;99.90;;;;;;5001659;28;20473;-70
2023/03/05 12:29:40;;;;;;;5.27;2.57;;;7.50;99.90;;;;;;5004514;28;20539;-68
2023/03/05 12:32:41;;;;;;;4.13;3.07;;;7.50;99.90;;;;;;5016442;28;21132;-71
2023/03/05 12:35:23;;;;;;;2.37;1.70;;;7.90;99.90;;;;;;5004788;28;20495;-71
2023/03/05 12:38:02;;;;;;;6.10;2.23;;;8.30;99.90;;;;;;5005076;28;20492;-70
2023/03/05 12:40:30;;;;;;;3.90;2.33;;;8.50;99.90;;;;;;5004901;28;20511;-71
2023/03/05 12:43:01;;;;;;;2.07;1.47;;;8.60;99.90;;;;;;4998147;28;20517;-71
2023/03/05 12:45:34;;;;;;;2.67;2.47;;;8.80;99.90;;;;;;5002209;28;20970;-71
2023/03/05 12:48:39;;;;;;;3.60;2.30;;;9.10;99.90;;;;;;5006319;28;20485;-71
2023/03/05 12:51:06;;;;;;;4.63;2.37;;;9.40;99.90;;;;;;5000258;28;20565;-71
2023/03/05 12:53:33;;;;;;;2.67;1.70;;;9.90;99.90;;;;;;5005729;28;20481;-71
2023/03/05 12:56:09;;;;;;;2.20;2.00;;;10.20;99.90;;;;;;5023333;28;20478;-71
2023/03/05 12:58:42;;;;;;;2.63;2.20;;;10.30;99.90;;;;;;5019497;28;20508;-70
2023/03/05 13:01:37;;;;;;;2.37;1.87;;;10.70;99.90;;;;;;5017431;28;20490;-72
2023/03/05 13:04:09;;;;;;;2.60;1.50;;;11.30;99.90;;;;;;4998436;28;20996;-72
2023/03/05 13:06:38;;;;;;;1.90;1.70;;;11.60;99.90;;;;;;5008106;28;20481;-71
2023/03/05 13:09:15;;;;;;;1.90;1.50;;;11.80;99.90;;;;;;5006725;28;20493;-72
2023/03/05 13:11:45;;;;;;;1.90;1.53;;;12.40;99.90;;;;;;5008405;28;20473;-72